createdAt,value
2022-10-04T00:01:47.688Z,6.60
2022-10-04T00:04:28.744Z,7.25
2022-10-04T00:07:15.279Z,9.77
2022-10-04T00:09:41.870Z,7.13
2022-10-04T00:12:39.540Z,10.00
2022-10-04T00:15:22.748Z,8.45
2022-10-04T00:18:28.301Z,10.07
2022-10-04T00:21:02.014Z,6.72
2022-10-04T00:23:41.828Z,7.40
2022-10-04T00:26:34.784Z,13.20
2022-10-04T00:29:42.247Z,8.77
2022-10-04T00:32:11.909Z,8.43
2022-10-04T00:34:49.682Z,8.70
2022-10-04T00:37:21.188Z,7.45
2022-10-04T00:39:58.979Z,6.30
2022-10-04T00:42:31.474Z,8.35
2022-10-04T00:45:12.648Z,8.02
2022-10-04T00:47:48.302Z,9.05
2022-10-04T00:50:30.185Z,7.10
2022-10-04T00:53:01.850Z,7.57
2022-10-04T00:55:48.864Z,10.30
2022-10-04T00:58:24.366Z,7.60
2022-10-04T01:00:54.937Z,9.02
2022-10-04T01:03:30.523Z,6.50
2022-10-04T01:06:05.841Z,6.90
2022-10-04T01:08:41.661Z,7.68
2022-10-04T01:11:22.275Z,6.00
2022-10-04T01:14:11.577Z,6.93
2022-10-04T01:16:42.085Z,5.40
2022-10-04T01:19:26.610Z,6.60
2022-10-04T01:22:02.841Z,7.57
2022-10-04T01:24:44.770Z,5.35
2022-10-04T01:27:42.635Z,6.15
2022-10-04T01:30:13.654Z,9.20
2022-10-04T01:32:41.961Z,9.95
2022-10-04T01:35:12.225Z,7.22
2022-10-04T01:37:39.788Z,5.95
2022-10-04T01:40:09.156Z,7.53
2022-10-04T01:42:50.397Z,9.80
2022-10-04T01:45:29.634Z,6.50
2022-10-04T01:48:08.630Z,6.78
2022-10-04T01:50:52.033Z,10.45
2022-10-04T01:53:20.969Z,9.23
2022-10-04T01:56:13.174Z,10.52
2022-10-04T01:58:52.846Z,8.25
2022-10-04T02:01:43.643Z,7.78
2022-10-04T02:04:16.287Z,5.90
2022-10-04T02:06:46.434Z,5.88
2022-10-04T02:09:18.746Z,7.38
2022-10-04T02:11:54.274Z,6.75
2022-10-04T02:14:24.686Z,6.32
2022-10-04T02:16:53.931Z,7.40
2022-10-04T02:19:28.695Z,9.68
2022-10-04T02:21:56.275Z,9.82
2022-10-04T02:24:23.304Z,7.70
2022-10-04T02:26:54.156Z,8.63
2022-10-04T02:29:21.389Z,9.18
2022-10-04T02:32:10.852Z,8.77
2022-10-04T02:34:38.142Z,5.18
2022-10-04T02:37:05.821Z,6.18
2022-10-04T02:39:37.344Z,5.70
2022-10-04T02:42:12.529Z,6.88
2022-10-04T02:44:58.968Z,5.88
2022-10-04T02:47:33.055Z,7.72
2022-10-04T02:50:07.568Z,7.97
2022-10-04T02:52:42.270Z,5.28
2022-10-04T02:55:24.853Z,6.28
2022-10-04T02:57:52.586Z,7.30
2022-10-04T03:00:20.953Z,8.23
2022-10-04T03:03:12.372Z,6.95
2022-10-04T03:05:40.504Z,10.70
2022-10-04T03:08:08.245Z,10.30
2022-10-04T03:10:36.130Z,10.13
2022-10-04T03:13:03.881Z,7.30
2022-10-04T03:15:31.682Z,7.85
2022-10-04T03:17:59.827Z,8.18
2022-10-04T03:20:27.414Z,7.47
2022-10-04T03:22:56.524Z,6.68
2022-10-04T03:25:30.027Z,8.82
2022-10-04T03:28:02.206Z,7.00
2022-10-04T03:30:32.039Z,9.57
2022-10-04T03:32:59.984Z,12.98
2022-10-04T03:35:34.937Z,10.82
2022-10-04T03:38:06.920Z,7.53
2022-10-04T03:40:34.498Z,9.38
2022-10-04T03:43:03.483Z,9.65
2022-10-04T03:45:32.001Z,12.95
2022-10-04T03:48:06.323Z,10.75
2022-10-04T03:50:58.419Z,12.65
2022-10-04T03:53:36.792Z,12.68
2022-10-04T03:56:15.285Z,7.18
2022-10-04T03:58:42.784Z,12.48
2022-10-04T04:01:31.273Z,9.65
2022-10-04T04:04:07.118Z,12.70
2022-10-04T04:09:21.887Z,9.13
2022-10-04T04:11:51.478Z,7.20
2022-10-04T04:14:26.557Z,9.95
2022-10-04T04:17:30.444Z,11.13
2022-10-04T04:20:07.385Z,11.13
2022-10-04T04:22:36.356Z,11.25
2022-10-04T04:25:09.226Z,12.52
2022-10-04T04:27:40.619Z,10.18
2022-10-04T04:30:08.677Z,9.50
2022-10-04T04:32:42.193Z,14.48
2022-10-04T04:35:25.892Z,12.43
2022-10-04T04:38:19.618Z,12.57
2022-10-04T04:40:46.618Z,14.18
2022-10-04T04:43:20.100Z,10.80
2022-10-04T04:45:58.415Z,11.93
2022-10-04T04:48:30.121Z,12.65
2022-10-04T04:50:58.554Z,12.25
2022-10-04T04:53:29.005Z,14.32
2022-10-04T04:56:05.540Z,13.27
2022-10-04T04:58:45.960Z,10.38
2022-10-04T05:01:32.204Z,10.88
2022-10-04T05:06:31.735Z,10.70
2022-10-04T05:08:58.522Z,10.73
2022-10-04T05:11:31.125Z,11.48
2022-10-04T05:14:02.367Z,13.65
2022-10-04T05:16:38.127Z,14.65
2022-10-04T05:22:11.523Z,10.38
2022-10-04T05:24:44.881Z,9.93
2022-10-04T05:27:23.183Z,12.50
2022-10-04T05:30:14.081Z,9.23
2022-10-04T05:32:46.738Z,13.20
2022-10-04T05:35:22.400Z,12.77
2022-10-04T05:38:27.975Z,12.23
2022-10-04T05:41:21.778Z,18.00
2022-10-04T05:43:51.583Z,12.00
2022-10-04T05:46:29.247Z,14.68
2022-10-04T05:49:06.558Z,14.43
2022-10-04T05:51:49.925Z,12.27
2022-10-04T05:54:23.110Z,15.32
2022-10-04T05:57:10.984Z,11.38
2022-10-04T06:00:08.017Z,13.32
2022-10-04T06:02:56.634Z,13.35
2022-10-04T06:05:29.148Z,14.45
2022-10-04T06:08:09.432Z,16.52
2022-10-04T06:11:30.159Z,15.68
2022-10-04T06:13:59.584Z,15.00
2022-10-04T06:16:57.337Z,11.80
2022-10-04T06:20:10.643Z,15.45
2022-10-04T06:22:48.217Z,16.05
2022-10-04T06:25:24.399Z,14.00
2022-10-04T06:27:50.981Z,15.07
2022-10-04T06:30:19.774Z,13.55
2022-10-04T06:32:52.166Z,12.32
2022-10-04T06:35:49.652Z,14.55
2022-10-04T06:38:40.881Z,11.80
2022-10-04T06:41:28.727Z,12.65
2022-10-04T06:44:17.319Z,13.30
2022-10-04T06:46:59.117Z,13.68
2022-10-04T06:49:35.411Z,15.13
2022-10-04T06:52:15.434Z,14.38
2022-10-04T06:54:59.152Z,14.02
2022-10-04T06:58:08.603Z,13.52
2022-10-04T07:00:52.770Z,15.95
2022-10-04T07:03:38.979Z,12.45
2022-10-04T07:06:10.563Z,13.63
2022-10-04T07:08:47.462Z,14.82
2022-10-04T07:11:14.236Z,13.85
2022-10-04T07:13:59.771Z,16.75
2022-10-04T07:16:36.449Z,15.83
2022-10-04T07:19:24.691Z,13.50
2022-10-04T07:21:59.716Z,13.75
2022-10-04T07:25:05.587Z,15.03
2022-10-04T07:27:42.494Z,15.23
2022-10-04T07:30:17.563Z,11.23
2022-10-04T07:32:46.566Z,14.68
2022-10-04T07:35:16.926Z,13.13
2022-10-04T07:38:00.323Z,11.88
2022-10-04T07:40:30.606Z,15.98
2022-10-04T07:43:13.501Z,11.75
2022-10-04T07:45:42.299Z,17.02
2022-10-04T07:48:24.107Z,12.45
2022-10-04T07:51:14.195Z,12.73
2022-10-04T07:53:55.501Z,13.38
2022-10-04T07:56:43.588Z,13.32
2022-10-04T07:59:39.970Z,12.80
2022-10-04T08:02:34.313Z,13.43
2022-10-04T08:05:23.488Z,13.50
2022-10-04T08:08:03.579Z,13.75
2022-10-04T08:10:38.181Z,14.15
2022-10-04T08:13:26.524Z,14.73
2022-10-04T08:15:59.229Z,14.68
2022-10-04T08:18:48.934Z,14.90
2022-10-04T08:21:26.943Z,15.40
2022-10-04T08:24:03.195Z,17.33
2022-10-04T08:26:38.186Z,14.63
2022-10-04T08:29:35.479Z,19.00
2022-10-04T08:32:14.434Z,15.90
2022-10-04T08:35:07.111Z,12.80
2022-10-04T08:38:01.621Z,13.80
2022-10-04T08:40:49.989Z,10.00
2022-10-04T08:44:06.236Z,12.48
2022-10-04T08:47:03.296Z,8.55
2022-10-04T08:49:49.179Z,10.82
2022-10-04T08:52:31.166Z,12.10
2022-10-04T08:55:25.773Z,11.00
2022-10-04T08:58:12.481Z,11.05
2022-10-04T09:00:55.405Z,12.13
2022-10-04T09:03:35.585Z,10.98
2022-10-04T09:06:15.350Z,10.40
2022-10-04T09:09:20.180Z,8.32
2022-10-04T09:12:14.325Z,8.95
2022-10-04T09:15:02.299Z,10.25
2022-10-04T09:17:42.699Z,9.52
2022-10-04T09:20:38.925Z,8.48
2022-10-04T09:23:43.687Z,9.93
2022-10-04T09:26:46.694Z,8.65
2022-10-04T09:29:32.183Z,8.15
2022-10-04T09:32:13.780Z,10.10
2022-10-04T09:34:52.479Z,9.00
2022-10-04T09:38:02.914Z,9.43
2022-10-04T09:40:48.107Z,5.97
2022-10-04T09:43:42.456Z,5.82
2022-10-04T09:47:02.031Z,6.22
2022-10-04T09:49:40.843Z,5.97
2022-10-04T09:52:31.672Z,7.05
2022-10-04T09:55:13.145Z,7.65
2022-10-04T09:58:06.436Z,4.43
2022-10-04T10:00:43.619Z,6.68
2022-10-04T10:03:33.483Z,6.05
2022-10-04T10:06:29.561Z,5.65
2022-10-04T10:09:56.087Z,5.45
2022-10-04T10:13:13.887Z,5.22
2022-10-04T10:16:11.976Z,7.15
2022-10-04T10:19:11.574Z,4.68
2022-10-04T10:21:58.724Z,4.30
2022-10-04T10:24:31.565Z,4.65
2022-10-04T10:27:10.217Z,4.85
2022-10-04T10:30:22.691Z,6.00
2022-10-04T10:33:04.219Z,5.07
2022-10-04T10:35:42.926Z,5.55
2022-10-04T10:38:46.575Z,6.32
2022-10-04T10:41:20.270Z,4.95
2022-10-04T10:44:08.109Z,3.50
2022-10-04T10:47:02.116Z,5.38
2022-10-04T10:50:04.010Z,5.65
2022-10-04T10:52:47.926Z,7.72
2022-10-04T10:55:47.712Z,4.65
2022-10-04T10:59:15.829Z,4.85
2022-10-04T11:02:12.994Z,5.60
2022-10-04T11:05:16.623Z,4.13
2022-10-04T11:08:00.375Z,5.95
2022-10-04T11:11:18.430Z,6.32
2022-10-04T11:14:21.930Z,5.57
2022-10-04T11:17:27.590Z,4.38
2022-10-04T11:20:06.245Z,3.47
2022-10-04T11:23:02.158Z,4.45
2022-10-04T11:25:50.887Z,4.60
2022-10-04T11:28:35.917Z,5.97
2022-10-04T11:31:54.067Z,6.50
2022-10-04T11:34:51.816Z,5.97
2022-10-04T11:37:23.174Z,5.65
2022-10-04T11:40:34.284Z,6.18
2022-10-04T11:43:40.414Z,5.93
2022-10-04T11:46:24.910Z,7.93
2022-10-04T11:49:01.587Z,4.07
2022-10-04T11:51:53.535Z,4.10
2022-10-04T11:55:00.090Z,5.57
2022-10-04T11:57:31.256Z,7.70
2022-10-04T12:00:11.629Z,5.65
2022-10-04T12:03:05.681Z,5.95
2022-10-04T12:06:24.006Z,5.90
2022-10-04T12:08:59.573Z,5.72
2022-10-04T12:11:57.581Z,7.55
2022-10-04T12:14:39.011Z,5.28
2022-10-04T12:17:25.291Z,5.10
2022-10-04T12:20:28.000Z,8.07
2022-10-04T12:23:17.751Z,8.30
2022-10-04T12:25:51.101Z,6.28
2022-10-04T12:28:26.405Z,5.00
2022-10-04T12:31:02.584Z,5.30
2022-10-04T12:33:38.923Z,5.50
2022-10-04T12:36:12.756Z,4.40
2022-10-04T12:39:03.076Z,5.55
2022-10-04T12:41:55.993Z,5.07
2022-10-04T12:44:28.371Z,4.78
2022-10-04T12:47:17.931Z,5.75
2022-10-04T12:49:49.523Z,4.88
2022-10-04T12:52:24.676Z,5.32
2022-10-04T12:55:10.014Z,5.65
2022-10-04T13:00:20.386Z,4.32
2022-10-04T13:03:13.565Z,4.68
2022-10-04T13:06:10.887Z,4.28
2022-10-04T13:09:16.977Z,3.92
2022-10-04T13:12:02.452Z,5.95
2022-10-04T13:14:32.272Z,7.10
2022-10-04T13:17:27.688Z,6.13
2022-10-04T13:20:01.594Z,4.32
2022-10-04T13:22:55.852Z,6.45
2022-10-04T13:25:46.308Z,5.93
2022-10-04T13:28:32.415Z,5.30
2022-10-04T13:31:06.303Z,7.63
2022-10-04T13:33:58.359Z,5.55
2022-10-04T13:36:43.170Z,6.13
2022-10-04T13:39:36.136Z,4.45
2022-10-04T13:42:12.740Z,3.95
2022-10-04T13:45:06.067Z,5.82
2022-10-04T13:48:12.853Z,5.82
2022-10-04T13:50:59.136Z,5.53
2022-10-04T13:54:18.556Z,4.93
2022-10-04T13:57:26.833Z,5.18
2022-10-04T14:00:05.434Z,5.90
2022-10-04T14:03:08.961Z,4.65
2022-10-04T14:06:06.147Z,3.78
2022-10-04T14:09:01.293Z,4.45
2022-10-04T14:11:50.007Z,4.45
2022-10-04T14:14:44.829Z,5.28
2022-10-04T14:17:25.286Z,3.90
2022-10-04T14:20:03.782Z,6.47
2022-10-04T14:22:32.033Z,5.93
2022-10-04T14:25:23.581Z,5.65
2022-10-04T14:28:14.146Z,5.03
2022-10-04T14:31:10.790Z,4.55
2022-10-04T14:33:37.345Z,4.30
2022-10-04T14:36:13.379Z,5.07
2022-10-04T14:39:04.304Z,4.35
2022-10-04T14:41:46.480Z,3.45
2022-10-04T14:44:25.490Z,4.68
2022-10-04T14:47:19.733Z,5.22
2022-10-04T14:50:27.577Z,4.97
2022-10-04T14:53:13.730Z,4.93
2022-10-04T14:56:02.519Z,4.38
2022-10-04T14:58:41.143Z,4.40
2022-10-04T15:01:28.250Z,6.10
2022-10-04T15:04:39.815Z,4.10
2022-10-04T15:07:22.234Z,3.42
2022-10-04T15:09:57.666Z,5.20
2022-10-04T15:13:10.354Z,4.18
2022-10-04T15:16:12.962Z,6.65
2022-10-04T15:19:22.027Z,6.97
2022-10-04T15:22:06.851Z,6.32
2022-10-04T15:24:56.802Z,5.35
2022-10-04T15:27:35.662Z,5.63
2022-10-04T15:30:27.587Z,5.55
2022-10-04T15:33:00.509Z,5.15
2022-10-04T15:35:51.639Z,5.28
2022-10-04T15:38:44.722Z,6.03
2022-10-04T15:41:28.317Z,6.32
2022-10-04T15:44:25.081Z,6.97
2022-10-04T15:47:09.546Z,5.30
2022-10-04T15:49:37.175Z,4.78
2022-10-04T15:52:21.556Z,4.80
2022-10-04T15:55:09.156Z,4.50
2022-10-04T15:57:42.068Z,3.08
2022-10-04T16:00:24.067Z,3.75
2022-10-04T16:02:55.692Z,3.72
2022-10-04T16:05:58.591Z,3.58
2022-10-04T16:08:56.567Z,5.80
2022-10-04T16:11:23.444Z,4.55
2022-10-04T16:13:54.799Z,4.82
2022-10-04T16:16:29.487Z,5.97
2022-10-04T16:19:17.983Z,6.00
2022-10-04T16:21:44.726Z,4.68
2022-10-04T16:24:20.231Z,5.55
2022-10-04T16:29:24.005Z,4.82
2022-10-04T16:32:22.578Z,4.30
2022-10-04T16:34:51.815Z,7.38
2022-10-04T16:37:28.728Z,6.85
2022-10-04T16:40:12.602Z,4.95
2022-10-04T16:42:45.108Z,5.28
2022-10-04T16:45:14.341Z,6.82
2022-10-04T16:47:56.791Z,8.30
2022-10-04T16:50:48.322Z,7.07
2022-10-04T16:53:32.845Z,6.45
2022-10-04T16:56:15.392Z,6.82
2022-10-04T16:59:01.871Z,6.85
2022-10-04T17:05:19.272Z,4.40
2022-10-04T17:12:02.488Z,5.82
2022-10-04T17:14:50.033Z,8.32
2022-10-04T17:17:43.772Z,5.97
2022-10-04T17:20:46.064Z,7.03
2022-10-04T17:23:38.034Z,8.75
2022-10-04T17:26:13.825Z,9.20
2022-10-04T17:28:56.927Z,8.07
2022-10-04T17:32:01.512Z,9.75
2022-10-04T17:34:36.995Z,7.78
2022-10-04T17:37:21.397Z,8.40
2022-10-04T17:40:12.843Z,6.75
2022-10-04T17:43:00.569Z,7.20
2022-10-04T17:45:50.226Z,6.28
2022-10-04T17:48:46.048Z,6.32
2022-10-04T17:51:58.072Z,6.20
2022-10-04T17:54:49.918Z,6.70
2022-10-04T17:57:27.625Z,6.70
2022-10-04T18:00:08.519Z,5.80
2022-10-04T18:02:38.334Z,7.60
2022-10-04T18:05:21.634Z,8.13
2022-10-04T18:07:54.418Z,8.05
2022-10-04T18:10:31.830Z,9.50
2022-10-04T18:13:11.545Z,9.15
2022-10-04T18:16:18.669Z,9.85
2022-10-04T18:18:47.482Z,8.35
2022-10-04T18:21:31.363Z,10.93
2022-10-04T18:24:16.880Z,9.55
2022-10-04T18:27:14.679Z,9.23
2022-10-04T18:30:00.599Z,11.13
2022-10-04T18:32:27.413Z,11.38
2022-10-04T18:34:55.876Z,10.52
2022-10-04T18:37:34.502Z,12.13
2022-10-04T18:40:47.592Z,9.95
2022-10-04T18:43:27.463Z,10.80
2022-10-04T18:46:13.060Z,11.32
2022-10-04T18:49:08.840Z,13.00
2022-10-04T18:51:50.277Z,12.20
2022-10-04T18:54:54.625Z,11.02
2022-10-04T18:57:32.706Z,10.55
2022-10-04T19:00:31.135Z,11.73
2022-10-04T19:03:17.621Z,17.20
2022-10-04T19:06:02.551Z,11.88
2022-10-04T19:08:48.140Z,8.88
2022-10-04T19:11:29.053Z,11.65
2022-10-04T19:14:34.577Z,10.45
2022-10-04T19:17:13.855Z,11.30
2022-10-04T19:20:06.028Z,12.00
2022-10-04T19:23:02.201Z,10.23
2022-10-04T19:25:36.723Z,11.40
2022-10-04T19:28:06.793Z,10.90
2022-10-04T19:30:58.269Z,20.30
2022-10-04T19:33:36.813Z,12.50
2022-10-04T19:36:03.630Z,11.00
2022-10-04T19:39:01.798Z,10.70
2022-10-04T19:41:56.443Z,12.70
2022-10-04T19:44:47.316Z,11.15
2022-10-04T19:47:39.715Z,10.95
2022-10-04T19:50:09.608Z,11.77
2022-10-04T19:52:40.469Z,13.88
2022-10-04T19:55:27.721Z,12.50
2022-10-04T19:58:12.015Z,13.52
2022-10-04T20:00:38.870Z,10.07
2022-10-04T20:03:12.827Z,12.85
2022-10-04T20:05:45.322Z,12.57
2022-10-04T20:08:13.925Z,11.45
2022-10-04T20:10:42.486Z,15.05
2022-10-04T20:13:25.468Z,14.27
2022-10-04T20:15:53.528Z,20.63
2022-10-04T20:18:32.180Z,17.77
2022-10-04T20:21:00.308Z,14.70
2022-10-04T20:23:39.293Z,15.40
2022-10-04T20:26:53.871Z,16.83
2022-10-04T20:29:36.817Z,15.85
2022-10-04T20:32:28.663Z,15.63
2022-10-04T20:34:58.187Z,16.60
2022-10-04T20:38:13.447Z,17.65
2022-10-04T20:40:40.525Z,18.20
2022-10-04T20:43:13.288Z,13.32
2022-10-04T20:45:55.190Z,14.75
2022-10-04T20:48:24.342Z,14.38
2022-10-04T20:50:52.264Z,17.17
2022-10-04T20:53:20.635Z,11.35
2022-10-04T20:55:48.779Z,15.63
2022-10-04T20:58:28.546Z,11.73
2022-10-04T21:01:15.207Z,11.52
2022-10-04T21:03:42.608Z,13.40
2022-10-04T21:06:11.636Z,12.20
2022-10-04T21:08:39.523Z,12.32
2022-10-04T21:11:19.142Z,15.88
2022-10-04T21:14:02.023Z,14.27
2022-10-04T21:16:44.363Z,13.85
2022-10-04T21:19:30.486Z,13.05
2022-10-04T21:22:01.828Z,10.35
2022-10-04T21:24:38.185Z,11.57
2022-10-04T21:27:15.589Z,9.18
2022-10-04T21:29:42.264Z,12.60
2022-10-04T21:32:09.030Z,12.15
2022-10-04T21:34:52.408Z,9.77
2022-10-04T21:37:20.412Z,11.95
2022-10-04T21:39:47.149Z,9.95
2022-10-04T21:42:14.072Z,10.32
2022-10-04T21:44:40.696Z,13.32
2022-10-04T21:47:07.475Z,11.10
2022-10-04T21:49:34.718Z,10.93
2022-10-04T21:52:01.390Z,12.55
2022-10-04T21:54:28.188Z,11.43
2022-10-04T21:56:54.968Z,12.55
2022-10-04T21:59:21.805Z,12.18
2022-10-04T22:01:48.648Z,11.35
2022-10-04T22:04:15.467Z,14.10
2022-10-04T22:06:42.351Z,11.73
2022-10-04T22:09:09.970Z,9.75
2022-10-04T22:11:37.265Z,12.50
2022-10-04T22:14:04.681Z,11.30
2022-10-04T22:16:31.413Z,8.88
2022-10-04T22:18:58.171Z,16.35
2022-10-04T22:21:24.833Z,10.95
2022-10-04T22:23:51.550Z,12.25
2022-10-04T22:26:20.941Z,12.30
2022-10-04T22:28:51.372Z,13.93
2022-10-04T22:31:21.130Z,9.13
2022-10-04T22:33:50.036Z,10.38
2022-10-04T22:36:38.696Z,11.90
2022-10-04T22:39:08.345Z,11.75
2022-10-04T22:41:47.438Z,11.15
2022-10-04T22:44:21.368Z,11.15
2022-10-04T22:46:51.612Z,14.10
2022-10-04T22:49:22.246Z,9.90
2022-10-04T22:51:51.352Z,11.43
2022-10-04T22:54:20.679Z,12.27
2022-10-04T22:56:48.371Z,10.95
2022-10-04T22:59:17.287Z,11.80
2022-10-04T23:01:44.541Z,9.38
2022-10-04T23:04:13.934Z,11.00
2022-10-04T23:06:40.597Z,12.35
2022-10-04T23:09:07.612Z,14.40
2022-10-04T23:11:34.313Z,9.82
2022-10-04T23:14:00.968Z,12.93
2022-10-04T23:16:27.716Z,12.93
2022-10-04T23:19:21.258Z,12.27
2022-10-04T23:21:49.551Z,11.18
2022-10-04T23:24:17.444Z,12.80
2022-10-04T23:26:49.257Z,10.65
2022-10-04T23:29:19.787Z,14.88
2022-10-04T23:31:47.466Z,12.65
2022-10-04T23:34:33.453Z,10.88
2022-10-04T23:37:00.541Z,12.52
2022-10-04T23:39:30.719Z,13.13
2022-10-04T23:41:57.498Z,10.18
2022-10-04T23:44:29.998Z,11.80
2022-10-04T23:46:56.657Z,12.00
2022-10-04T23:49:23.667Z,15.00
2022-10-04T23:51:54.051Z,12.50
2022-10-04T23:54:21.036Z,12.75
2022-10-04T23:56:48.730Z,11.40
2022-10-04T23:59:22.000Z,13.27
